createdAt,value
2019-06-27T00:00:33.597Z,22.20
2019-06-27T00:03:02.786Z,22.20
2019-06-27T00:05:31.753Z,22.20
2019-06-27T00:08:00.671Z,22.20
2019-06-27T00:10:29.553Z,22.10
2019-06-27T00:12:58.508Z,22.00
2019-06-27T00:15:27.745Z,22.00
2019-06-27T00:17:56.669Z,21.90
2019-06-27T00:20:25.521Z,21.90
2019-06-27T00:22:54.414Z,21.80
2019-06-27T00:25:23.778Z,21.80
2019-06-27T00:27:52.957Z,21.80
2019-06-27T00:30:21.816Z,21.80
2019-06-27T00:32:50.696Z,21.70
2019-06-27T00:35:19.558Z,21.60
2019-06-27T00:37:48.437Z,21.50
2019-06-27T00:40:17.797Z,21.40
2019-06-27T00:42:46.635Z,21.40
2019-06-27T00:45:15.991Z,21.30
2019-06-27T00:47:44.960Z,21.30
2019-06-27T00:50:14.365Z,21.40
2019-06-27T00:52:43.336Z,21.10
2019-06-27T00:55:13.035Z,21.10
2019-06-27T00:57:42.356Z,21.10
2019-06-27T01:00:11.803Z,21.00
2019-06-27T01:02:40.835Z,21.00
2019-06-27T01:05:09.890Z,21.00
2019-06-27T01:07:38.966Z,20.90
2019-06-27T01:10:08.571Z,20.90
2019-06-27T01:12:37.562Z,20.80
2019-06-27T01:15:07.249Z,20.70
2019-06-27T01:17:36.165Z,20.70
2019-06-27T01:20:05.502Z,20.60
2019-06-27T01:22:34.392Z,20.60
2019-06-27T01:25:03.528Z,20.60
2019-06-27T01:27:32.523Z,20.50
2019-06-27T01:30:01.441Z,20.40
2019-06-27T01:32:30.371Z,20.40
2019-06-27T01:34:59.501Z,20.30
2019-06-27T01:37:28.381Z,20.20
2019-06-27T01:39:57.556Z,20.30
2019-06-27T01:42:26.477Z,20.20
2019-06-27T01:44:59.750Z,20.20
2019-06-27T01:47:28.641Z,20.20
2019-06-27T01:49:57.660Z,20.20
2019-06-27T01:52:26.673Z,20.20
2019-06-27T01:54:55.826Z,20.10
2019-06-27T01:57:24.748Z,20.10
2019-06-27T01:59:53.635Z,20.00
2019-06-27T02:02:23.353Z,19.90
2019-06-27T02:04:52.620Z,19.90
2019-06-27T02:07:21.489Z,19.90
2019-06-27T02:09:50.721Z,19.80
2019-06-27T02:12:19.722Z,19.90
2019-06-27T02:14:48.596Z,19.70
2019-06-27T02:17:17.541Z,19.70
2019-06-27T02:19:46.496Z,19.70
2019-06-27T02:22:15.431Z,19.70
2019-06-27T02:24:45.029Z,19.70
2019-06-27T02:27:13.922Z,19.60
2019-06-27T02:29:43.176Z,19.60
2019-06-27T02:32:11.973Z,19.50
2019-06-27T02:34:40.868Z,19.40
2019-06-27T02:37:10.037Z,19.40
2019-06-27T02:39:38.977Z,19.30
2019-06-27T02:42:07.989Z,19.30
2019-06-27T02:44:36.927Z,19.30
2019-06-27T02:47:05.833Z,19.20
2019-06-27T02:49:34.704Z,19.10
2019-06-27T02:52:03.606Z,19.20
2019-06-27T02:54:32.553Z,19.10
2019-06-27T02:57:04.694Z,19.00
2019-06-27T02:59:33.858Z,19.00
2019-06-27T03:02:02.805Z,18.90
2019-06-27T03:04:31.774Z,18.80
2019-06-27T03:07:00.826Z,18.80
2019-06-27T03:09:29.726Z,18.80
2019-06-27T03:12:00.496Z,18.80
2019-06-27T03:14:29.533Z,18.70
2019-06-27T03:16:58.371Z,18.60
2019-06-27T03:19:27.293Z,18.60
2019-06-27T03:21:56.149Z,18.60
2019-06-27T03:24:25.009Z,18.60
2019-06-27T03:26:54.217Z,18.60
2019-06-27T03:29:23.406Z,18.60
2019-06-27T03:31:52.422Z,18.50
2019-06-27T03:34:21.445Z,18.40
2019-06-27T03:36:50.340Z,18.50
2019-06-27T03:39:19.346Z,18.30
2019-06-27T03:41:48.229Z,18.40
2019-06-27T03:44:17.121Z,18.40
2019-06-27T03:46:46.022Z,18.30
2019-06-27T03:49:14.952Z,18.30
2019-06-27T03:51:43.979Z,18.20
2019-06-27T03:54:12.901Z,18.20
2019-06-27T03:56:41.801Z,18.20
2019-06-27T03:59:13.424Z,17.90
2019-06-27T04:01:42.176Z,18.00
2019-06-27T04:04:11.202Z,18.00
2019-06-27T04:06:40.106Z,18.00
2019-06-27T04:09:09.101Z,17.90
2019-06-27T04:11:38.408Z,18.00
2019-06-27T04:14:07.664Z,18.10
2019-06-27T04:16:38.543Z,18.00
2019-06-27T04:19:08.110Z,18.00
2019-06-27T04:21:37.117Z,18.00
2019-06-27T04:24:06.308Z,17.90
2019-06-27T04:26:35.368Z,17.90
2019-06-27T04:29:04.204Z,17.90
2019-06-27T04:31:33.258Z,17.70
2019-06-27T04:34:02.323Z,17.70
2019-06-27T04:36:31.386Z,17.80
2019-06-27T04:39:00.305Z,17.90
2019-06-27T04:41:29.266Z,18.00
2019-06-27T04:43:58.179Z,18.70
2019-06-27T04:46:27.123Z,19.00
2019-06-27T04:48:56.180Z,18.90
2019-06-27T04:51:25.171Z,18.90
2019-06-27T04:53:53.982Z,18.90
2019-06-27T04:56:22.825Z,19.10
2019-06-27T04:58:51.804Z,19.50
2019-06-27T05:01:20.823Z,19.90
2019-06-27T05:03:49.855Z,19.70
2019-06-27T05:06:18.831Z,19.90
2019-06-27T05:08:47.689Z,19.90
2019-06-27T05:11:16.727Z,20.00
2019-06-27T05:13:45.910Z,20.10
2019-06-27T05:16:14.802Z,19.30
2019-06-27T05:18:43.705Z,20.00
2019-06-27T05:21:12.567Z,19.80
2019-06-27T05:23:41.540Z,19.70
2019-06-27T05:26:10.772Z,19.10
2019-06-27T05:28:40.581Z,18.80
2019-06-27T05:31:09.546Z,18.90
2019-06-27T05:33:38.835Z,18.90
2019-06-27T05:36:07.757Z,18.70
2019-06-27T05:38:36.782Z,18.40
2019-06-27T05:42:06.206Z,18.60
2019-06-27T05:44:35.067Z,18.50
2019-06-27T05:47:04.038Z,18.60
2019-06-27T05:49:33.085Z,18.50
2019-06-27T05:52:01.929Z,18.60
2019-06-27T05:54:38.278Z,18.30
2019-06-27T05:57:07.168Z,18.40
2019-06-27T06:00:05.819Z,18.40
2019-06-27T06:02:34.796Z,18.60
2019-06-27T06:05:03.788Z,18.60
2019-06-27T06:07:32.751Z,18.30
2019-06-27T06:13:29.290Z,18.60
2019-06-27T06:16:01.003Z,18.70
2019-06-27T06:18:28.939Z,18.60
2019-06-27T06:20:58.250Z,18.70
2019-06-27T06:23:27.312Z,18.50
2019-06-27T06:25:56.892Z,18.50
2019-06-27T06:28:25.872Z,18.50
2019-06-27T06:30:54.709Z,18.30
2019-06-27T06:33:23.699Z,18.40
2019-06-27T06:35:52.803Z,18.60
2019-06-27T06:38:21.604Z,18.70
2019-06-27T06:40:50.579Z,18.80
2019-06-27T06:43:19.554Z,18.40
2019-06-27T06:45:48.996Z,18.50
2019-06-27T06:48:17.904Z,18.60
2019-06-27T06:50:46.875Z,18.50
2019-06-27T06:53:16.122Z,18.40
2019-06-27T06:55:45.104Z,18.80
2019-06-27T06:58:14.102Z,18.80
2019-06-27T07:00:59.934Z,19.10
2019-06-27T07:03:13.857Z,19.00
2019-06-27T07:05:42.677Z,18.90
2019-06-27T07:08:11.630Z,18.80
2019-06-27T07:10:40.618Z,18.70
2019-06-27T07:13:09.522Z,18.90
2019-06-27T07:15:38.418Z,19.00
2019-06-27T07:18:07.515Z,19.00
2019-06-27T07:20:36.645Z,18.90
2019-06-27T07:23:05.485Z,19.00
2019-06-27T07:25:34.550Z,19.00
2019-06-27T07:28:03.479Z,19.10
2019-06-27T07:30:32.442Z,19.30
2019-06-27T07:33:01.485Z,19.30
2019-06-27T07:35:30.523Z,19.50
2019-06-27T07:37:59.742Z,19.50
2019-06-27T07:40:29.289Z,19.60
2019-06-27T07:42:58.337Z,19.50
2019-06-27T07:45:27.323Z,19.30
2019-06-27T07:47:56.451Z,19.30
2019-06-27T07:50:25.491Z,19.40
2019-06-27T07:52:54.413Z,19.40
2019-06-27T07:55:24.144Z,19.50
2019-06-27T07:57:53.091Z,19.80
2019-06-27T08:00:22.275Z,19.80
2019-06-27T08:02:51.627Z,19.80
2019-06-27T08:05:20.622Z,20.00
2019-06-27T08:07:49.742Z,20.30
2019-06-27T08:10:18.757Z,20.30
2019-06-27T08:12:48.107Z,20.30
2019-06-27T08:15:17.594Z,20.40
2019-06-27T08:17:46.841Z,20.40
2019-06-27T08:20:15.754Z,20.30
2019-06-27T08:22:44.693Z,20.10
2019-06-27T08:25:13.849Z,20.40
2019-06-27T08:27:42.695Z,20.80
2019-06-27T08:30:12.071Z,20.80
2019-06-27T08:32:41.906Z,20.80
2019-06-27T08:35:12.599Z,20.60
2019-06-27T08:37:41.602Z,21.00
2019-06-27T08:40:11.439Z,20.90
2019-06-27T08:42:40.381Z,20.70
2019-06-27T08:45:10.505Z,20.60
2019-06-27T08:47:39.940Z,20.80
2019-06-27T08:50:09.576Z,20.90
2019-06-27T08:52:38.752Z,20.80
2019-06-27T08:55:07.999Z,21.30
2019-06-27T08:57:37.051Z,21.30
2019-06-27T09:00:07.839Z,21.20
2019-06-27T09:02:36.847Z,21.50
2019-06-27T09:05:05.986Z,21.40
2019-06-27T09:07:34.969Z,21.80
2019-06-27T09:10:04.255Z,21.70
2019-06-27T09:12:33.169Z,21.50
2019-06-27T09:15:02.297Z,21.50
2019-06-27T09:17:31.244Z,21.60
2019-06-27T09:20:37.482Z,22.00
2019-06-27T09:23:06.493Z,22.20
2019-06-27T09:25:35.667Z,21.90
2019-06-27T09:28:04.660Z,21.60
2019-06-27T09:30:33.615Z,21.90
2019-06-27T09:33:05.570Z,22.10
2019-06-27T09:35:34.487Z,22.30
2019-06-27T09:38:03.447Z,22.30
2019-06-27T09:40:33.057Z,22.60
2019-06-27T09:43:01.859Z,22.60
2019-06-27T09:45:32.824Z,22.80
2019-06-27T09:48:01.757Z,22.60
2019-06-27T09:50:30.909Z,22.40
2019-06-27T09:53:02.218Z,22.80
2019-06-27T09:55:31.236Z,22.80
2019-06-27T09:58:00.038Z,22.50
2019-06-27T10:00:29.073Z,22.70
2019-06-27T10:02:57.889Z,22.90
2019-06-27T10:05:26.942Z,23.20
2019-06-27T10:07:55.816Z,23.50
2019-06-27T10:10:24.750Z,23.10
2019-06-27T10:12:54.099Z,23.30
2019-06-27T10:15:23.051Z,23.10
2019-06-27T10:17:51.964Z,23.20
2019-06-27T10:20:21.057Z,23.10
2019-06-27T10:22:50.408Z,23.10
2019-06-27T10:25:22.818Z,23.00
2019-06-27T10:27:52.080Z,23.10
2019-06-27T10:30:21.773Z,23.50
2019-06-27T10:32:58.820Z,23.80
2019-06-27T10:35:22.207Z,24.10
2019-06-27T10:37:51.452Z,24.00
2019-06-27T10:40:20.823Z,24.10
2019-06-27T10:42:50.287Z,24.20
2019-06-27T10:45:19.352Z,24.40
2019-06-27T10:47:48.234Z,24.10
2019-06-27T10:50:17.825Z,23.70
2019-06-27T10:52:46.665Z,24.30
2019-06-27T10:55:15.539Z,24.00
2019-06-27T10:57:44.424Z,24.30
2019-06-27T11:00:13.948Z,24.70
2019-06-27T11:02:42.920Z,24.50
2019-06-27T11:05:11.961Z,24.50
2019-06-27T11:07:41.322Z,24.40
2019-06-27T11:10:10.502Z,24.20
2019-06-27T11:12:39.288Z,24.60
2019-06-27T11:15:10.472Z,24.90
2019-06-27T11:17:39.274Z,24.80
2019-06-27T11:20:08.451Z,24.80
2019-06-27T11:22:37.539Z,24.50
2019-06-27T11:25:06.656Z,24.60
2019-06-27T11:27:35.436Z,24.40
2019-06-27T11:30:05.325Z,24.60
2019-06-27T11:32:34.548Z,24.70
2019-06-27T11:35:03.736Z,24.80
2019-06-27T11:37:33.736Z,24.20
2019-06-27T11:40:02.617Z,24.60
2019-06-27T11:42:31.535Z,25.00
2019-06-27T11:45:03.399Z,25.00
2019-06-27T11:47:34.686Z,24.80
2019-06-27T11:50:04.138Z,25.20
2019-06-27T11:52:32.983Z,25.50
2019-06-27T11:55:01.873Z,25.30
2019-06-27T11:57:30.659Z,25.60
2019-06-27T11:59:59.606Z,25.30
2019-06-27T12:02:28.581Z,25.50
2019-06-27T12:04:57.692Z,25.40
2019-06-27T12:07:26.532Z,25.60
2019-06-27T12:09:55.569Z,25.10
2019-06-27T12:12:24.704Z,25.40
2019-06-27T12:14:53.719Z,25.50
2019-06-27T12:17:22.818Z,25.80
2019-06-27T12:19:51.742Z,25.60
2019-06-27T12:22:20.714Z,25.90
2019-06-27T12:24:49.848Z,26.00
2019-06-27T12:27:18.834Z,25.90
2019-06-27T12:29:47.729Z,25.50
2019-06-27T12:32:16.654Z,25.80
2019-06-27T12:34:45.515Z,26.00
2019-06-27T12:37:14.438Z,25.70
2019-06-27T12:39:43.314Z,26.00
2019-06-27T12:42:12.223Z,25.90
2019-06-27T12:44:41.047Z,26.10
2019-06-27T12:47:09.942Z,26.20
2019-06-27T12:49:56.993Z,26.40
2019-06-27T12:52:09.326Z,26.20
2019-06-27T12:54:38.412Z,26.30
2019-06-27T12:57:07.495Z,26.40
2019-06-27T12:59:36.380Z,26.50
2019-06-27T13:02:05.484Z,26.60
2019-06-27T13:04:34.595Z,26.50
2019-06-27T13:07:03.367Z,26.70
2019-06-27T13:09:32.201Z,26.80
2019-06-27T13:12:01.417Z,26.70
2019-06-27T13:14:32.450Z,26.90
2019-06-27T13:17:01.887Z,26.90
2019-06-27T13:19:30.813Z,27.10
2019-06-27T13:21:59.617Z,26.70
2019-06-27T13:24:28.540Z,27.20
2019-06-27T13:26:57.411Z,26.80
2019-06-27T13:29:27.231Z,27.20
2019-06-27T13:31:56.654Z,27.30
2019-06-27T13:34:39.949Z,27.00
2019-06-27T13:36:57.165Z,26.90
2019-06-27T13:39:26.051Z,26.90
2019-06-27T13:41:55.091Z,26.90
2019-06-27T13:44:23.897Z,26.80
2019-06-27T13:46:53.165Z,27.00
2019-06-27T13:49:22.204Z,27.10
2019-06-27T13:51:51.161Z,26.70
2019-06-27T13:54:20.201Z,26.70
2019-06-27T13:56:49.097Z,26.90
2019-06-27T13:59:17.973Z,26.90
2019-06-27T14:01:50.225Z,26.90
2019-06-27T14:04:19.131Z,27.00
2019-06-27T14:06:48.048Z,27.20
2019-06-27T14:09:23.537Z,27.50
2019-06-27T14:11:47.594Z,27.60
2019-06-27T14:14:16.384Z,27.80
2019-06-27T14:16:45.216Z,27.60
2019-06-27T14:19:14.148Z,27.50
2019-06-27T14:21:42.982Z,27.50
2019-06-27T14:24:11.870Z,27.70
2019-06-27T14:26:40.756Z,27.20
2019-06-27T14:29:09.710Z,26.70
2019-06-27T14:31:38.539Z,27.40
2019-06-27T14:34:07.682Z,27.00
2019-06-27T14:36:36.934Z,27.60
2019-06-27T14:39:06.987Z,27.70
2019-06-27T14:41:35.849Z,27.70
2019-06-27T14:44:09.171Z,27.80
2019-06-27T14:46:37.979Z,27.80
2019-06-27T14:49:06.862Z,27.50
2019-06-27T14:51:36.029Z,27.50
2019-06-27T14:54:04.968Z,27.50
2019-06-27T14:56:33.870Z,27.50
2019-06-27T14:59:03.086Z,27.50
2019-06-27T15:01:31.958Z,27.50
2019-06-27T15:04:00.801Z,27.20
2019-06-27T15:06:29.682Z,27.70
2019-06-27T15:09:02.386Z,27.50
2019-06-27T15:11:29.081Z,27.30
2019-06-27T15:13:57.857Z,27.30
2019-06-27T15:16:27.421Z,27.60
2019-06-27T15:18:56.575Z,27.80
2019-06-27T15:21:25.520Z,27.80
2019-06-27T15:23:54.387Z,27.90
2019-06-27T15:26:23.367Z,27.90
2019-06-27T15:28:52.191Z,27.80
2019-06-27T15:31:22.369Z,28.50
2019-06-27T15:33:51.524Z,28.90
2019-06-27T15:36:20.310Z,28.90
2019-06-27T15:38:49.436Z,28.90
2019-06-27T15:41:18.299Z,29.40
2019-06-27T15:43:47.176Z,29.20
2019-06-27T15:46:16.362Z,29.90
2019-06-27T15:48:45.161Z,29.90
2019-06-27T15:51:14.208Z,29.60
2019-06-27T15:53:43.757Z,29.70
2019-06-27T15:56:12.654Z,29.30
2019-06-27T15:58:41.507Z,29.40
2019-06-27T16:01:10.840Z,30.10
2019-06-27T16:03:40.008Z,29.00
2019-06-27T16:06:11.127Z,28.80
2019-06-27T16:08:39.604Z,29.50
2019-06-27T16:11:09.154Z,29.70
2019-06-27T16:13:37.948Z,28.90
2019-06-27T16:16:07.452Z,28.80
2019-06-27T16:18:36.239Z,29.00
2019-06-27T16:21:05.533Z,29.10
2019-06-27T16:23:34.489Z,28.70
2019-06-27T16:26:03.655Z,28.50
2019-06-27T16:28:33.061Z,29.00
2019-06-27T16:31:01.926Z,29.50
2019-06-27T16:33:30.760Z,29.50
2019-06-27T16:35:59.606Z,29.20
2019-06-27T16:38:28.468Z,28.50
2019-06-27T16:40:57.253Z,29.10
2019-06-27T16:43:26.501Z,29.20
2019-06-27T16:45:55.415Z,29.70
2019-06-27T16:48:24.284Z,30.20
2019-06-27T16:50:53.342Z,30.90
2019-06-27T16:53:22.152Z,30.40
2019-06-27T16:55:50.956Z,30.80
2019-06-27T16:58:19.935Z,30.00
2019-06-27T17:00:49.109Z,29.50
2019-06-27T17:03:17.899Z,29.00
2019-06-27T17:05:46.740Z,29.70
2019-06-27T17:08:17.247Z,30.70
2019-06-27T17:10:46.227Z,29.90
2019-06-27T17:13:15.309Z,29.30
2019-06-27T17:15:44.239Z,29.40
2019-06-27T17:18:13.134Z,29.10
2019-06-27T17:20:41.984Z,29.70
2019-06-27T17:23:10.852Z,30.20
2019-06-27T17:25:40.077Z,29.30
2019-06-27T17:28:09.151Z,29.90
2019-06-27T17:30:38.026Z,29.90
2019-06-27T17:33:06.867Z,29.40
2019-06-27T17:35:35.849Z,29.20
2019-06-27T17:38:04.849Z,30.00
2019-06-27T17:40:33.919Z,30.50
2019-06-27T17:43:02.724Z,31.60
2019-06-27T17:45:31.929Z,31.90
2019-06-27T17:48:00.922Z,30.60
2019-06-27T17:50:29.734Z,30.00
2019-06-27T17:52:58.595Z,30.00
2019-06-27T17:55:27.745Z,30.20
2019-06-27T17:57:56.678Z,30.30
2019-06-27T18:00:25.573Z,31.00
2019-06-27T18:02:54.448Z,29.50
2019-06-27T18:05:23.240Z,29.40
2019-06-27T18:07:52.381Z,29.00
2019-06-27T18:10:21.437Z,28.70
2019-06-27T18:12:50.298Z,28.80
2019-06-27T18:15:19.542Z,29.60
2019-06-27T18:17:48.442Z,29.90
2019-06-27T18:20:17.599Z,29.20
2019-06-27T18:22:46.714Z,29.00
2019-06-27T18:25:15.573Z,29.20
2019-06-27T18:27:44.394Z,29.60
2019-06-27T18:30:13.345Z,30.10
2019-06-27T18:32:42.132Z,29.40
2019-06-27T18:35:12.010Z,29.50
2019-06-27T18:37:41.139Z,29.40
2019-06-27T18:40:10.104Z,29.90
2019-06-27T18:42:38.899Z,29.70
2019-06-27T18:45:08.661Z,29.50
2019-06-27T18:47:37.459Z,28.50
2019-06-27T18:50:06.969Z,28.10
2019-06-27T18:52:35.904Z,28.00
2019-06-27T18:55:05.151Z,27.90
2019-06-27T18:57:34.008Z,28.00
2019-06-27T19:00:02.873Z,28.00
2019-06-27T19:02:32.056Z,28.10
2019-06-27T19:05:00.827Z,27.90
2019-06-27T19:07:44.229Z,27.90
2019-06-27T19:10:01.120Z,27.60
2019-06-27T19:12:30.170Z,26.80
2019-06-27T19:14:58.968Z,26.20
2019-06-27T19:17:28.133Z,25.80
2019-06-27T19:20:00.613Z,25.60
2019-06-27T19:23:00.440Z,25.50
2019-06-27T19:25:33.044Z,25.30
2019-06-27T19:28:01.949Z,25.30
2019-06-27T19:30:30.831Z,25.20
2019-06-27T19:32:59.647Z,25.10
2019-06-27T19:35:28.588Z,25.00
2019-06-27T19:38:01.870Z,24.90
2019-06-27T19:40:28.283Z,24.80
2019-06-27T19:42:57.079Z,24.70
2019-06-27T19:45:26.151Z,24.60
2019-06-27T19:47:55.145Z,24.40
2019-06-27T19:50:24.444Z,24.40
2019-06-27T19:52:53.536Z,24.30
2019-06-27T19:55:22.443Z,24.40
2019-06-27T19:57:51.359Z,24.30
2019-06-27T20:00:20.601Z,24.10
2019-06-27T20:02:49.400Z,24.00
2019-06-27T20:05:18.520Z,24.00
2019-06-27T20:07:47.320Z,23.90
2019-06-27T20:10:16.464Z,23.70
2019-06-27T20:12:45.301Z,23.60
2019-06-27T20:15:14.352Z,23.50
2019-06-27T20:17:43.297Z,23.50
2019-06-27T20:20:12.443Z,23.40
2019-06-27T20:22:41.309Z,23.30
2019-06-27T20:25:10.728Z,23.20
2019-06-27T20:27:39.545Z,23.10
2019-06-27T20:30:09.032Z,23.00
2019-06-27T20:32:37.918Z,22.90
2019-06-27T20:35:06.938Z,22.80
2019-06-27T20:37:36.023Z,22.80
2019-06-27T20:40:05.533Z,22.80
2019-06-27T20:42:35.579Z,22.70
2019-06-27T20:45:04.864Z,22.60
2019-06-27T20:47:33.691Z,22.50
2019-06-27T20:50:14.639Z,22.50
2019-06-27T20:52:43.837Z,22.50
2019-06-27T20:55:13.145Z,22.40
2019-06-27T20:57:41.942Z,22.30
2019-06-27T21:00:11.587Z,22.20
2019-06-27T21:02:40.748Z,22.10
2019-06-27T21:05:10.093Z,22.10
2019-06-27T21:07:39.055Z,22.10
2019-06-27T21:10:08.249Z,22.00
2019-06-27T21:12:37.211Z,22.00
2019-06-27T21:15:06.316Z,21.80
2019-06-27T21:17:35.105Z,21.80
2019-06-27T21:20:04.069Z,21.80
2019-06-27T21:22:33.679Z,21.70
2019-06-27T21:25:02.633Z,21.70
2019-06-27T21:27:31.517Z,21.60
2019-06-27T21:30:00.381Z,21.60
2019-06-27T21:32:31.712Z,21.50
2019-06-27T21:35:00.265Z,21.50
2019-06-27T21:37:29.049Z,21.40
2019-06-27T21:39:57.868Z,21.30
2019-06-27T21:42:26.648Z,21.60
2019-06-27T21:44:55.603Z,21.40
2019-06-27T21:47:24.415Z,21.30
2019-06-27T21:49:53.198Z,21.20
2019-06-27T21:52:22.107Z,21.10
2019-06-27T21:54:50.939Z,21.00
2019-06-27T21:57:19.865Z,20.80
2019-06-27T21:59:48.793Z,20.80
2019-06-27T22:02:17.675Z,20.80
2019-06-27T22:04:46.484Z,20.60
2019-06-27T22:07:15.330Z,20.50
2019-06-27T22:09:44.508Z,20.40
2019-06-27T22:12:13.410Z,20.30
2019-06-27T22:14:42.258Z,20.20
2019-06-27T22:17:11.127Z,20.20
2019-06-27T22:19:40.286Z,20.10
2019-06-27T22:22:09.191Z,20.10
2019-06-27T22:24:38.120Z,20.00
2019-06-27T22:27:06.995Z,20.00
2019-06-27T22:29:35.835Z,20.00
2019-06-27T22:32:04.781Z,20.00
2019-06-27T22:34:33.833Z,19.90
2019-06-27T22:37:04.053Z,19.80
2019-06-27T22:39:52.174Z,19.80
2019-06-27T22:42:38.729Z,19.70
2019-06-27T22:45:26.077Z,19.70
2019-06-27T22:48:12.272Z,19.60
2019-06-27T22:51:05.610Z,19.50
2019-06-27T22:53:39.075Z,19.50
2019-06-27T22:56:07.933Z,19.40
2019-06-27T22:58:36.756Z,19.40
2019-06-27T23:01:07.246Z,19.30
2019-06-27T23:03:36.102Z,19.30
2019-06-27T23:06:04.993Z,19.20
2019-06-27T23:08:34.158Z,19.20
2019-06-27T23:11:03.110Z,19.20
2019-06-27T23:13:32.004Z,19.20
2019-06-27T23:16:00.876Z,19.10
2019-06-27T23:18:30.057Z,19.10
2019-06-27T23:20:58.981Z,19.10
2019-06-27T23:23:27.771Z,19.10
2019-06-27T23:25:56.566Z,18.90
2019-06-27T23:28:25.705Z,18.90
2019-06-27T23:30:55.481Z,18.90
2019-06-27T23:33:24.601Z,18.90
2019-06-27T23:35:53.444Z,18.80
2019-06-27T23:38:22.223Z,18.80
2019-06-27T23:40:51.294Z,18.70
2019-06-27T23:43:20.125Z,18.70
2019-06-27T23:45:48.904Z,18.70
2019-06-27T23:48:18.048Z,18.70
2019-06-27T23:50:46.888Z,18.60
2019-06-27T23:53:15.698Z,18.60
2019-06-27T23:55:44.481Z,18.60
2019-06-27T23:58:13.398Z,18.50
